Cotes De La Manche — FQBE — position and weather

sailwx.info

Track history (hours):
 
Tides and Currents Weather Stations Pressure Air Temp Water Temp Dewpoint Dewpoint Depression Visibility Wind Speed Wind Dir Waves Ship Positions

Cotes De La Manche

Last reported at 2016-Aug-25 19:24 UTC. Time now 2016-Aug-26 01:24 UTC.
Position N 48°20' W 005°10'.

Length 25 m; draft 3.7 m.

Type: Other ship. MMSI: 227091000.

Date/timePositionNaut miles runAvg speedWind from/ knotsBaromVisibWave heightAir tempDewpointWater temp
2016-Aug-25 19:24N 48°20' W 005°10'7 8.1
2016-Aug-25 18:33N 48°16' W 005°01'8 7.8
2016-Aug-25 17:33N 48°17' W 004°49'3 2.5
2016-Aug-25 16:34N 48°16' W 004°53'5 4.6
2016-Aug-25 15:33N 48°16' W 005°00'0 0.1
2016-Aug-25 14:33N 48°16' W 004°60'10 9.6
2016-Aug-25 13:33N 48°17' W 004°45'0 0.4
2016-Aug-25 12:33N 48°17' W 004°45'8 8.2
2016-Aug-25 11:33N 48°21' W 004°34'4 4.1
2016-Aug-25 10:34N 48°23' W 004°29'0 0.0
2016-Aug-25 09:33N 48°23' W 004°29'0 0.0
2016-Aug-25 08:34N 48°23' W 004°29'0 0.0
2016-Aug-25 07:33N 48°23' W 004°29'0 0.0
2016-Aug-25 06:33N 48°23' W 004°29'0 0.0
2016-Aug-25 04:33N 48°23' W 004°29'0 0.0
2016-Aug-25 03:33N 48°23' W 004°29'0 0.0
2016-Aug-25 02:34N 48°23' W 004°29'0 0.0
2016-Aug-25 01:33N 48°23' W 004°29'0 0.0
2016-Aug-25 00:33N 48°23' W 004°29'0 0.0
2016-Aug-24 23:33N 48°23' W 004°29'0 0.0
2016-Aug-24 22:33N 48°23' W 004°29'0 0.0
2016-Aug-24 21:33N 48°23' W 004°29'0 0.0
2016-Aug-24 20:33N 48°23' W 004°29'0 0.0
2016-Aug-24 19:33N 48°23' W 004°29'0 0.0
2016-Aug-24 18:33N 48°23' W 004°29'0 0.0
2016-Aug-24 17:33N 48°23' W 004°29'0 0.0
2016-Aug-24 16:33N 48°23' W 004°29'0 0.0
2016-Aug-24 15:34N 48°23' W 004°29'0 0.0
2016-Aug-24 14:33N 48°23' W 004°29'0 0.0
2016-Aug-24 13:33N 48°23' W 004°29'0 0.0
2016-Aug-24 12:33N 48°23' W 004°29'0 0.0
2016-Aug-24 11:33N 48°23' W 004°29'0 0.0
2016-Aug-24 10:33N 48°23' W 004°29'0 0.0
2016-Aug-24 09:33N 48°23' W 004°29'0 0.0
2016-Aug-24 08:33N 48°23' W 004°29'0 0.0
2016-Aug-24 07:33N 48°23' W 004°29'0 0.0
2016-Aug-24 06:33N 48°23' W 004°29'0 0.0
2016-Aug-24 04:33N 48°23' W 004°29'0 0.0
2016-Aug-24 03:33N 48°23' W 004°29'0 0.0
2016-Aug-24 02:33N 48°23' W 004°29'0 0.0
2016-Aug-24 01:33N 48°23' W 004°29'0 0.0
2016-Aug-24 00:33N 48°23' W 004°29'0 0.0
2016-Aug-23 23:33N 48°23' W 004°29'0 0.0
2016-Aug-23 22:33N 48°23' W 004°29'0 0.0
2016-Aug-23 21:33N 48°23' W 004°29'0 0.0
2016-Aug-23 20:33N 48°23' W 004°29'0 0.0
2016-Aug-23 19:33N 48°23' W 004°29'0 0.0
2016-Aug-23 18:33N 48°23' W 004°29'0 0.0
2016-Aug-23 17:33N 48°23' W 004°29'0 0.0
2016-Aug-23 16:33N 48°23' W 004°29'0 0.0
2016-Aug-23 15:33N 48°23' W 004°29'0 0.0
2016-Aug-23 14:33N 48°23' W 004°29'0 0.0
2016-Aug-23 13:33N 48°23' W 004°29'0 0.0
2016-Aug-23 12:33N 48°23' W 004°29'0 0.0
2016-Aug-23 11:33N 48°23' W 004°29'0 0.0
2016-Aug-23 10:33N 48°23' W 004°29'0 0.0
2016-Aug-23 09:33N 48°23' W 004°29'0 0.0
2016-Aug-23 08:33N 48°23' W 004°29'0 0.0
2016-Aug-23 07:33N 48°23' W 004°29'0 0.0
2016-Aug-23 06:33N 48°23' W 004°29'0 0.0
2016-Aug-23 05:33N 48°23' W 004°29'0 0.0
2016-Aug-23 04:33N 48°23' W 004°29'0 0.0
2016-Aug-23 03:33N 48°23' W 004°29'0 0.0
2016-Aug-23 02:33N 48°23' W 004°29'0 0.0
2016-Aug-23 01:33N 48°23' W 004°29'0 0.0
2016-Aug-23 00:33N 48°23' W 004°29'0 0.0
2016-Aug-22 23:33N 48°23' W 004°29'0 0.0
2016-Aug-22 22:33N 48°23' W 004°29'0 0.0
2016-Aug-22 21:33N 48°23' W 004°29'0 0.0
2016-Aug-22 20:33N 48°23' W 004°29'0 0.0
2016-Aug-22 19:33N 48°23' W 004°29'0 0.0
2016-Aug-22 18:33N 48°23' W 004°29'0 0.0
2016-Aug-22 17:33N 48°23' W 004°29'0 0.0
2016-Aug-22 16:33N 48°23' W 004°29'0 0.0
2016-Aug-22 15:33N 48°23' W 004°29'0 0.0
2016-Aug-22 14:33N 48°23' W 004°29'0 0.0
2016-Aug-22 13:34N 48°23' W 004°29'0 0.0
2016-Aug-22 12:33N 48°23' W 004°29'0 0.0
2016-Aug-22 11:33N 48°23' W 004°29'0 0.0
2016-Aug-22 10:33N 48°23' W 004°29'0 0.0
2016-Aug-22 09:33N 48°23' W 004°29'0 0.0
2016-Aug-22 08:33N 48°23' W 004°29'0 0.0
2016-Aug-22 07:33N 48°23' W 004°29'0 0.0
2016-Aug-22 06:33N 48°23' W 004°29'0 0.0
2016-Aug-22 05:33N 48°23' W 004°29'0 0.0
2016-Aug-22 04:33N 48°23' W 004°29'0 0.0
2016-Aug-22 03:33N 48°23' W 004°29'0 0.0
2016-Aug-22 02:33N 48°23' W 004°29'0 0.0
2016-Aug-22 01:33N 48°23' W 004°29'0 0.0
2016-Aug-22 00:33N 48°23' W 004°29'0 0.0
2016-Aug-21 23:33N 48°23' W 004°29'0 0.0
2016-Aug-21 22:33N 48°23' W 004°29'0 0.0
2016-Aug-21 21:33N 48°23' W 004°29'0 0.0
2016-Aug-21 20:33N 48°23' W 004°29'0 0.0
2016-Aug-21 19:33N 48°23' W 004°29'0 0.0
2016-Aug-21 18:33N 48°23' W 004°29'0 0.0
2016-Aug-21 17:33N 48°23' W 004°29'0 0.0
2016-Aug-21 16:33N 48°23' W 004°29'0 0.0
2016-Aug-21 15:33N 48°23' W 004°29'0 0.0
2016-Aug-21 14:33N 48°23' W 004°29'7 7.3
2016-Aug-21 13:33N 48°18' W 004°38'9 9.0
2016-Aug-21 12:33N 48°11' W 004°46'1010.2
2016-Aug-21 11:33N 48°01' W 004°44'35 0.7
2016-Aug-19 12:31N 47°49' W 003°55'9 9.1
2016-Aug-19 11:33N 47°44' W 003°45'8 7.7
2016-Aug-19 10:33N 47°40' W 003°36'9 9.1
2016-Aug-19 09:33N 47°32' W 003°29'1010.1
2016-Aug-19 08:33N 47°26' W 003°17'7 7.0
2016-Aug-19 07:33N 47°21' W 003°09'0 0.0
2016-Aug-19 06:33N 47°21' W 003°09'0 0.0
2016-Aug-19 05:33N 47°21' W 003°09'0 0.0
2016-Aug-19 04:33N 47°21' W 003°09'0 0.0
2016-Aug-19 03:33N 47°21' W 003°09'0 0.0
2016-Aug-19 02:33N 47°21' W 003°09'0 0.0
2016-Aug-19 01:33N 47°21' W 003°09'0 0.0
2016-Aug-19 00:33N 47°21' W 003°09'0 0.0
2016-Aug-18 23:33N 47°21' W 003°09'0 0.0
2016-Aug-18 22:33N 47°21' W 003°09'0 0.0
2016-Aug-18 21:33N 47°21' W 003°09'0 0.0
2016-Aug-18 20:33N 47°21' W 003°09'0 0.0
2016-Aug-18 19:33N 47°21' W 003°09'1 1.1
2016-Aug-18 18:33N 47°21' W 003°07'9 9.5
2016-Aug-18 17:33N 47°14' W 002°58'10 9.8
2016-Aug-18 16:33N 47°06' W 002°50'39 9.5
2016-Aug-18 12:27N 46°33' W 002°18'9 9.8
2016-Aug-18 11:32N 46°26' W 002°11'105 2.8
2016-Aug-16 21:33N 45°04' W 000°38'0 0.0
2016-Aug-16 20:33N 45°04' W 000°38'0 0.0
2016-Aug-16 19:33N 45°04' W 000°38'0 0.0
2016-Aug-16 18:33N 45°04' W 000°38'12 0.5
2016-Aug-15 20:21N 45°15' W 000°44'  
Track history (hours):
 
Tides and Currents Weather Stations Pressure Air Temp Water Temp Dewpoint Dewpoint Depression Visibility Wind Speed Wind Dir Waves Ship Positions

Cotes De La Manche

Last reported at 2016-Aug-25 19:24 UTC. Time now 2016-Aug-26 01:24 UTC.
Position N 48°20' W 005°10'.

Length 25 m; draft 3.7 m.

Type: Other ship. MMSI: 227091000.

Date/timePositionNaut miles runAvg speedWind from/ knotsBaromVisibWave heightAir tempDewpointWater temp
2016-Aug-25 19:24N 48°20' W 005°10'7 8.1
2016-Aug-25 18:33N 48°16' W 005°01'8 7.8
2016-Aug-25 17:33N 48°17' W 004°49'3 2.5
2016-Aug-25 16:34N 48°16' W 004°53'5 4.6
2016-Aug-25 15:33N 48°16' W 005°00'0 0.1
2016-Aug-25 14:33N 48°16' W 004°60'10 9.6
2016-Aug-25 13:33N 48°17' W 004°45'0 0.4
2016-Aug-25 12:33N 48°17' W 004°45'8 8.2
2016-Aug-25 11:33N 48°21' W 004°34'4 4.1
2016-Aug-25 10:34N 48°23' W 004°29'0 0.0
2016-Aug-25 09:33N 48°23' W 004°29'0 0.0
2016-Aug-25 08:34N 48°23' W 004°29'0 0.0
2016-Aug-25 07:33N 48°23' W 004°29'0 0.0
2016-Aug-25 06:33N 48°23' W 004°29'0 0.0
2016-Aug-25 04:33N 48°23' W 004°29'0 0.0
2016-Aug-25 03:33N 48°23' W 004°29'0 0.0
2016-Aug-25 02:34N 48°23' W 004°29'0 0.0
2016-Aug-25 01:33N 48°23' W 004°29'0 0.0
2016-Aug-25 00:33N 48°23' W 004°29'0 0.0
2016-Aug-24 23:33N 48°23' W 004°29'0 0.0
2016-Aug-24 22:33N 48°23' W 004°29'0 0.0
2016-Aug-24 21:33N 48°23' W 004°29'0 0.0
2016-Aug-24 20:33N 48°23' W 004°29'0 0.0
2016-Aug-24 19:33N 48°23' W 004°29'0 0.0
2016-Aug-24 18:33N 48°23' W 004°29'0 0.0
2016-Aug-24 17:33N 48°23' W 004°29'0 0.0
2016-Aug-24 16:33N 48°23' W 004°29'0 0.0
2016-Aug-24 15:34N 48°23' W 004°29'0 0.0
2016-Aug-24 14:33N 48°23' W 004°29'0 0.0
2016-Aug-24 13:33N 48°23' W 004°29'0 0.0
2016-Aug-24 12:33N 48°23' W 004°29'0 0.0
2016-Aug-24 11:33N 48°23' W 004°29'0 0.0
2016-Aug-24 10:33N 48°23' W 004°29'0 0.0
2016-Aug-24 09:33N 48°23' W 004°29'0 0.0
2016-Aug-24 08:33N 48°23' W 004°29'0 0.0
2016-Aug-24 07:33N 48°23' W 004°29'0 0.0
2016-Aug-24 06:33N 48°23' W 004°29'0 0.0
2016-Aug-24 04:33N 48°23' W 004°29'0 0.0
2016-Aug-24 03:33N 48°23' W 004°29'0 0.0
2016-Aug-24 02:33N 48°23' W 004°29'0 0.0
2016-Aug-24 01:33N 48°23' W 004°29'0 0.0
2016-Aug-24 00:33N 48°23' W 004°29'0 0.0
2016-Aug-23 23:33N 48°23' W 004°29'0 0.0
2016-Aug-23 22:33N 48°23' W 004°29'0 0.0
2016-Aug-23 21:33N 48°23' W 004°29'0 0.0
2016-Aug-23 20:33N 48°23' W 004°29'0 0.0
2016-Aug-23 19:33N 48°23' W 004°29'0 0.0
2016-Aug-23 18:33N 48°23' W 004°29'0 0.0
2016-Aug-23 17:33N 48°23' W 004°29'0 0.0
2016-Aug-23 16:33N 48°23' W 004°29'0 0.0
2016-Aug-23 15:33N 48°23' W 004°29'0 0.0
2016-Aug-23 14:33N 48°23' W 004°29'0 0.0
2016-Aug-23 13:33N 48°23' W 004°29'0 0.0
2016-Aug-23 12:33N 48°23' W 004°29'0 0.0
2016-Aug-23 11:33N 48°23' W 004°29'0 0.0
2016-Aug-23 10:33N 48°23' W 004°29'0 0.0
2016-Aug-23 09:33N 48°23' W 004°29'0 0.0
2016-Aug-23 08:33N 48°23' W 004°29'0 0.0
2016-Aug-23 07:33N 48°23' W 004°29'0 0.0
2016-Aug-23 06:33N 48°23' W 004°29'0 0.0
2016-Aug-23 05:33N 48°23' W 004°29'0 0.0
2016-Aug-23 04:33N 48°23' W 004°29'0 0.0
2016-Aug-23 03:33N 48°23' W 004°29'0 0.0
2016-Aug-23 02:33N 48°23' W 004°29'0 0.0
2016-Aug-23 01:33N 48°23' W 004°29'0 0.0
2016-Aug-23 00:33N 48°23' W 004°29'0 0.0
2016-Aug-22 23:33N 48°23' W 004°29'0 0.0
2016-Aug-22 22:33N 48°23' W 004°29'0 0.0
2016-Aug-22 21:33N 48°23' W 004°29'0 0.0
2016-Aug-22 20:33N 48°23' W 004°29'0 0.0
2016-Aug-22 19:33N 48°23' W 004°29'0 0.0
2016-Aug-22 18:33N 48°23' W 004°29'0 0.0
2016-Aug-22 17:33N 48°23' W 004°29'0 0.0
2016-Aug-22 16:33N 48°23' W 004°29'0 0.0
2016-Aug-22 15:33N 48°23' W 004°29'0 0.0
2016-Aug-22 14:33N 48°23' W 004°29'0 0.0
2016-Aug-22 13:34N 48°23' W 004°29'0 0.0
2016-Aug-22 12:33N 48°23' W 004°29'0 0.0
2016-Aug-22 11:33N 48°23' W 004°29'0 0.0
2016-Aug-22 10:33N 48°23' W 004°29'0 0.0
2016-Aug-22 09:33N 48°23' W 004°29'0 0.0
2016-Aug-22 08:33N 48°23' W 004°29'0 0.0
2016-Aug-22 07:33N 48°23' W 004°29'0 0.0
2016-Aug-22 06:33N 48°23' W 004°29'0 0.0
2016-Aug-22 05:33N 48°23' W 004°29'0 0.0
2016-Aug-22 04:33N 48°23' W 004°29'0 0.0
2016-Aug-22 03:33N 48°23' W 004°29'0 0.0
2016-Aug-22 02:33N 48°23' W 004°29'0 0.0
2016-Aug-22 01:33N 48°23' W 004°29'0 0.0
2016-Aug-22 00:33N 48°23' W 004°29'0 0.0
2016-Aug-21 23:33N 48°23' W 004°29'0 0.0
2016-Aug-21 22:33N 48°23' W 004°29'0 0.0
2016-Aug-21 21:33N 48°23' W 004°29'0 0.0
2016-Aug-21 20:33N 48°23' W 004°29'0 0.0
2016-Aug-21 19:33N 48°23' W 004°29'0 0.0
2016-Aug-21 18:33N 48°23' W 004°29'0 0.0
2016-Aug-21 17:33N 48°23' W 004°29'0 0.0
2016-Aug-21 16:33N 48°23' W 004°29'0 0.0
2016-Aug-21 15:33N 48°23' W 004°29'0 0.0
2016-Aug-21 14:33N 48°23' W 004°29'7 7.3
2016-Aug-21 13:33N 48°18' W 004°38'9 9.0
2016-Aug-21 12:33N 48°11' W 004°46'1010.2
2016-Aug-21 11:33N 48°01' W 004°44'35 0.7
2016-Aug-19 12:31N 47°49' W 003°55'9 9.1
2016-Aug-19 11:33N 47°44' W 003°45'8 7.7
2016-Aug-19 10:33N 47°40' W 003°36'9 9.1
2016-Aug-19 09:33N 47°32' W 003°29'1010.1
2016-Aug-19 08:33N 47°26' W 003°17'7 7.0
2016-Aug-19 07:33N 47°21' W 003°09'0 0.0
2016-Aug-19 06:33N 47°21' W 003°09'0 0.0
2016-Aug-19 05:33N 47°21' W 003°09'0 0.0
2016-Aug-19 04:33N 47°21' W 003°09'0 0.0
2016-Aug-19 03:33N 47°21' W 003°09'0 0.0
2016-Aug-19 02:33N 47°21' W 003°09'0 0.0
2016-Aug-19 01:33N 47°21' W 003°09'0 0.0
2016-Aug-19 00:33N 47°21' W 003°09'0 0.0
2016-Aug-18 23:33N 47°21' W 003°09'0 0.0
2016-Aug-18 22:33N 47°21' W 003°09'0 0.0
2016-Aug-18 21:33N 47°21' W 003°09'0 0.0
2016-Aug-18 20:33N 47°21' W 003°09'0 0.0
2016-Aug-18 19:33N 47°21' W 003°09'1 1.1
2016-Aug-18 18:33N 47°21' W 003°07'9 9.5
2016-Aug-18 17:33N 47°14' W 002°58'10 9.8
2016-Aug-18 16:33N 47°06' W 002°50'39 9.5
2016-Aug-18 12:27N 46°33' W 002°18'9 9.8
2016-Aug-18 11:32N 46°26' W 002°11'105 2.8
2016-Aug-16 21:33N 45°04' W 000°38'0 0.0
2016-Aug-16 20:33N 45°04' W 000°38'0 0.0
2016-Aug-16 19:33N 45°04' W 000°38'0 0.0
2016-Aug-16 18:33N 45°04' W 000°38'12 0.5
2016-Aug-15 20:21N 45°15' W 000°44'  

Dump ship's entire track history